Time;durP1;ratioP1;P1;durP2;ratioP2;P2;SDS_P1;SDS_P2;PMS_P1;PMS_P2;Temp;Humidity;BMP_temperature;BMP_pressure;BME280_temperature;BME280_humidity;BME280_pressure;Samples;Min_cycle;Max_cycle;Signal;HPM_P1;HPM_P2
2021/07/14 00:01:49;;;;;;;0.32;0.32;;;;;;;29.72;40.65;100000.88;5031419;28;20045;-54
2021/07/14 00:42:37;;;;;;;0.10;0.10;;;;;;;29.49;41.00;99995.84;5028874;28;20513;-55
2021/07/14 00:45:05;;;;;;;0.00;0.00;;;;;;;29.50;41.25;100007.47;5029242;28;20424;-52
2021/07/14 00:47:32;;;;;;;0.10;0.10;;;;;;;29.52;41.31;100014.28;5030581;28;20057;-54
2021/07/14 00:49:59;;;;;;;0.00;0.00;;;;;;;29.50;41.05;100002.06;5030465;28;20061;-53
2021/07/14 00:52:32;;;;;;;0.20;0.20;;;;;;;29.52;41.33;100014.28;5030630;28;20507;-53
2021/07/14 00:54:58;;;;;;;0.00;0.00;;;;;;;29.53;41.05;100009.75;5030449;28;20045;-53
2021/07/14 00:57:27;;;;;;;0.35;0.35;;;;;;;29.52;41.12;100005.38;5045719;28;20050;-55
2021/07/14 00:59:53;;;;;;;0.10;0.10;;;;;;;29.50;41.14;100008.28;5013177;28;20057;-53
2021/07/14 01:02:20;;;;;;;0.20;0.20;;;;;;;29.51;41.22;100009.97;5030149;28;20095;-53
2021/07/14 01:05:08;;;;;;;0.17;0.17;;;;;;;29.47;41.21;100000.63;5029182;28;20095;-55
2021/07/14 01:07:43;;;;;;;0.00;0.00;;;;;;;29.53;41.21;100018.66;5045527;28;20111;-52
2021/07/14 01:10:12;;;;;;;0.05;0.05;;;;;;;29.54;41.03;100016.78;5028684;28;20056;-53
2021/07/14 01:12:56;;;;;;;0.40;0.40;;;;;;;29.52;41.14;100016.97;5012308;28;20050;-52
2021/07/14 01:15:22;;;;;;;0.00;0.00;;;;;;;29.43;40.99;100000.19;5029137;28;20054;-54
2021/07/14 01:17:59;;;;;;;0.10;0.10;;;;;;;29.56;41.11;100018.25;5028626;28;20140;-53
2021/07/14 01:20:28;;;;;;;0.08;0.08;;;;;;;29.58;41.13;100018.84;5012913;28;20554;-52
2021/07/14 01:23:09;;;;;;;0.20;0.20;;;;;;;29.59;41.04;100015.16;5030104;28;20072;-55
2021/07/14 01:25:57;;;;;;;0.20;0.20;;;;;;;29.61;41.11;100010.41;5028932;28;20470;-55
2021/07/14 01:28:25;;;;;;;0.32;0.32;;;;;;;29.64;40.89;100017.22;5029760;28;20064;-54
2021/07/14 01:30:52;;;;;;;0.10;0.10;;;;;;;29.69;40.90;100012.91;5029986;28;20049;-53
2021/07/14 01:33:46;;;;;;;0.10;0.10;;;;;;;29.80;40.59;100009.63;5012332;28;20620;-54
2021/07/14 01:36:15;;;;;;;0.20;0.20;;;;;;;29.94;40.33;100011.31;5025713;28;20053;-54
2021/07/14 01:38:42;;;;;;;0.25;0.25;;;;;;;30.06;40.05;100003.47;5029899;28;20567;-54
2021/07/14 01:41:08;;;;;;;0.10;0.10;;;;;;;30.19;39.79;100019.63;5028119;28;20080;-54
2021/07/14 01:43:57;;;;;;;0.17;0.17;;;;;;;30.34;39.50;100014.03;5028444;28;20080;-54
2021/07/14 01:46:24;;;;;;;0.15;0.15;;;;;;;30.46;39.19;100012.41;5029649;28;20502;-55
2021/07/14 01:48:50;;;;;;;0.10;0.10;;;;;;;30.59;38.99;100009.69;5028196;28;20064;-51
2021/07/14 01:51:16;;;;;;;0.20;0.20;;;;;;;30.76;38.76;100010.88;5011722;28;20064;-53
2021/07/14 01:53:42;;;;;;;0.10;0.10;;;;;;;30.90;38.18;100009.00;5028453;28;20053;-53
2021/07/14 01:56:09;;;;;;;0.28;0.28;;;;;;;31.09;38.17;100005.44;5028147;28;20119;-54
2021/07/14 01:58:37;;;;;;;0.10;0.10;;;;;;;31.25;37.84;100015.75;5028220;28;20065;-53
2021/07/14 02:01:05;;;;;;;0.20;0.20;;;;;;;31.42;37.45;100010.69;5011583;28;20200;-55
2021/07/14 02:06:00;;;;;;;0.25;0.15;;;;;;;31.69;37.03;100017.66;5028491;28;20049;-53
2021/07/14 02:08:29;;;;;;;0.20;0.20;;;;;;;31.87;36.90;100020.44;5029497;28;20065;-54
2021/07/14 02:10:55;;;;;;;0.20;0.20;;;;;;;32.01;36.78;100013.91;5028335;28;20042;-53
2021/07/14 02:13:22;;;;;;;0.35;0.35;;;;;;;32.17;36.17;100014.41;5028015;28;20144;-55
2021/07/14 02:15:49;;;;;;;8.05;2.40;;;;;;;32.32;36.31;100017.66;5029529;28;20049;-53
2021/07/14 02:18:15;;;;;;;0.32;0.20;;;;;;;32.48;36.03;100011.66;5027817;28;20148;-52
2021/07/14 02:20:41;;;;;;;0.10;0.10;;;;;;;32.61;35.82;100011.56;5028279;28;20059;-54
2021/07/14 02:23:08;;;;;;;0.10;0.10;;;;;;;32.73;35.25;100004.38;5028054;28;20041;-56
2021/07/14 02:25:33;;;;;;;0.40;0.40;;;;;;;32.86;35.17;100015.06;5029497;28;20414;-57
2021/07/14 02:28:00;;;;;;;0.30;0.30;;;;;;;33.01;35.10;100020.94;5029386;28;20053;-58
2021/07/14 02:30:26;;;;;;;0.00;0.00;;;;;;;33.12;34.48;100013.13;5029121;28;20058;-56
2021/07/14 02:32:57;;;;;;;0.17;0.17;;;;;;;33.20;34.33;100005.53;5029293;28;20418;-56
2021/07/14 02:35:24;;;;;;;0.30;0.30;;;;;;;33.36;34.14;100012.22;5044381;28;20050;-57
2021/07/14 02:38:00;;;;;;;0.20;0.20;;;;;;;33.50;33.87;100011.00;5029029;28;20057;-58
2021/07/14 02:40:34;;;;;;;0.20;0.20;;;;;;;33.61;33.60;100012.94;5013479;28;20045;-58
2021/07/14 02:43:03;;;;;;;0.15;0.15;;;;;;;33.80;33.42;100022.66;5015428;28;20095;-58
2021/07/14 02:45:29;;;;;;;0.22;0.22;;;;;;;33.87;32.95;100003.59;5031656;28;20052;-58
2021/07/14 02:47:56;;;;;;;0.10;0.10;;;;;;;34.08;33.07;100015.78;5031139;28;20102;-58
2021/07/14 02:50:24;;;;;;;0.25;0.25;;;;;;;34.24;32.85;100028.69;5031123;28;20553;-57
2021/07/14 02:52:53;;;;;;;0.10;0.10;;;;;;;34.36;32.61;100024.94;5031092;28;20052;-58
2021/07/14 02:55:23;;;;;;;0.32;0.32;;;;;;;34.50;32.08;100017.38;5014984;28;20544;-57
2021/07/14 02:57:51;;;;;;;0.40;0.40;;;;;;;34.63;31.87;100021.78;5031048;28;20064;-58
2021/07/14 03:00:17;;;;;;;0.10;0.10;;;;;;;34.67;31.93;100012.13;5031087;28;20068;-59
2021/07/14 03:02:43;;;;;;;0.30;0.30;;;;;;;34.84;31.39;100019.31;5031264;28;20486;-57
2021/07/14 03:05:10;;;;;;;0.28;0.28;;;;;;;34.97;31.39;100027.19;5014697;28;20052;-57
2021/07/14 03:07:36;;;;;;;0.40;0.40;;;;;;;35.09;31.04;100029.03;5048919;28;20064;-57
2021/07/14 03:10:02;;;;;;;0.10;0.10;;;;;;;35.17;31.07;100018.69;5031282;28;20131;-57
2021/07/14 03:12:28;;;;;;;0.20;0.20;;;;;;;35.28;30.68;100015.09;5016603;28;20532;-58
2021/07/14 03:14:57;;;;;;;0.22;0.22;;;;;;;35.46;30.57;100022.25;5034560;28;20049;-57
2021/07/14 03:17:23;;;;;;;;;;;;;;;35.58;30.37;100017.59;5034704;28;20065;-58
2021/07/14 03:19:49;;;;;;;0.20;0.20;;;;;;;35.70;30.29;100018.38;5052231;28;19920;-58
2021/07/14 03:22:15;;;;;;;0.30;0.30;;;;;;;35.78;30.15;100009.84;5051995;28;20497;-58
2021/07/14 03:24:42;;;;;;;0.15;0.15;;;;;;;35.92;30.02;100022.06;5052143;28;20514;-58
2021/07/14 03:27:08;;;;;;;0.25;0.25;;;;;;;35.99;29.73;100014.56;5034241;28;20049;-58
2021/07/14 03:29:35;;;;;;;1.38;0.93;;;;;;;36.11;29.65;100024.56;5034365;28;20045;-52
2021/07/14 03:32:02;;;;;;;0.10;0.10;;;;;;;36.20;29.53;100013.03;5034337;28;20086;-55
2021/07/14 03:34:30;;;;;;;0.10;0.10;;;;;;;36.33;29.25;100022.75;5051743;28;20044;-53
2021/07/14 03:36:56;;;;;;;1.55;1.00;;;;;;;36.31;29.18;100000.44;5052017;28;20052;-56
2021/07/14 03:39:22;;;;;;;0.10;0.10;;;;;;;36.53;29.20;100023.94;5052124;28;20076;-58
2021/07/14 03:41:48;;;;;;;0.20;0.20;;;;;;;36.60;28.74;100017.50;5051726;28;20140;-58
2021/07/14 03:44:15;;;;;;;0.10;0.10;;;;;;;36.69;28.82;100016.81;5017394;28;20140;-58
2021/07/14 03:46:42;;;;;;;0.20;0.20;;;;;;;36.82;28.76;100021.06;5034251;28;20063;-58
2021/07/14 03:49:08;;;;;;;0.10;0.10;;;;;;;36.84;28.47;100019.78;5051475;28;20203;-58
2021/07/14 03:51:34;;;;;;;0.30;0.30;;;;;;;36.96;28.45;100023.19;5034097;28;20565;-58
2021/07/14 03:54:00;;;;;;;0.10;0.10;;;;;;;37.05;28.19;100018.97;5051576;28;20048;-58
2021/07/14 03:56:27;;;;;;;0.35;0.35;;;;;;;37.13;27.97;100016.88;5033529;28;20060;-57
2021/07/14 03:58:53;;;;;;;0.88;0.88;;;;;;;37.15;28.14;100012.00;5033754;28;20052;-58
2021/07/14 04:01:19;;;;;;;0.10;0.10;;;;;;;37.24;27.62;100011.28;5033673;28;20429;-57
2021/07/14 04:03:45;;;;;;;0.20;0.20;;;;;;;37.33;27.88;100007.06;5033789;28;20075;-58
2021/07/14 04:06:11;;;;;;;0.32;0.32;;;;;;;37.47;27.80;100005.59;5033528;28;20049;-55
2021/07/14 04:08:42;;;;;;;0.20;0.20;;;;;;;37.57;27.88;100012.25;5051488;28;20469;-58
2021/07/14 04:11:09;;;;;;;0.73;0.73;;;;;;;37.61;27.66;100011.47;5033673;28;20048;-58
2021/07/14 04:13:35;;;;;;;0.10;0.10;;;;;;;37.66;27.50;100008.00;5033688;28;20571;-57
2021/07/14 04:16:01;;;;;;;0.20;0.20;;;;;;;37.78;27.97;100014.94;5033576;28;20057;-57
2021/07/14 04:18:27;;;;;;;0.95;0.95;;;;;;;37.85;27.45;100010.09;5033147;28;20118;-58
2021/07/14 04:20:53;;;;;;;0.20;0.20;;;;;;;37.88;27.06;100006.84;5051155;28;20056;-56
2021/07/14 04:23:19;;;;;;;0.13;0.13;;;;;;;38.03;27.56;100015.19;5050409;28;20051;-57
2021/07/14 04:25:45;;;;;;;0.25;0.25;;;;;;;38.10;27.33;100012.25;5051226;28;20053;-58
2021/07/14 04:28:11;;;;;;;0.38;0.38;;;;;;;38.10;27.64;100005.97;5050729;28;20061;-58
2021/07/14 04:30:37;;;;;;;0.30;0.30;;;;;;;38.25;27.62;100009.66;5050945;28;20052;-57
2021/07/14 04:33:03;;;;;;;0.25;0.25;;;;;;;38.28;27.18;100003.66;5050916;28;20045;-56
2021/07/14 04:35:29;;;;;;;0.47;0.47;;;;;;;38.38;27.00;100011.97;5033087;28;20060;-55
2021/07/14 04:37:55;;;;;;;0.40;0.40;;;;;;;38.47;27.02;100007.66;5050469;28;20048;-53
2021/07/14 04:40:22;;;;;;;0.10;0.10;;;;;;;38.55;27.12;100009.03;5050267;28;20053;-56
2021/07/14 04:42:50;;;;;;;0.20;0.20;;;;;;;38.62;27.22;99998.72;5050928;28;20056;-55
2021/07/14 04:45:16;;;;;;;0.20;0.20;;;;;;;38.65;26.77;99998.19;5050408;28;20079;-57
2021/07/14 04:47:42;;;;;;;0.10;0.10;;;;;;;38.69;27.25;100006.69;5050777;28;20098;-55
2021/07/14 04:50:08;;;;;;;0.17;0.17;;;;;;;38.79;26.85;100007.56;5050601;28;20048;-57
2021/07/14 04:52:34;;;;;;;0.20;0.20;;;;;;;38.78;27.17;100007.84;5049339;28;20506;-57
2021/07/14 04:55:00;;;;;;;0.20;0.20;;;;;;;38.78;27.15;100013.31;5050625;28;20045;-57
2021/07/14 04:57:26;;;;;;;0.30;0.30;;;;;;;38.88;26.50;100010.63;5032472;28;20517;-56
2021/07/14 04:59:52;;;;;;;0.10;0.10;;;;;;;38.89;27.11;100004.09;5032584;28;20044;-57
2021/07/14 05:02:18;;;;;;;0.40;0.40;;;;;;;38.89;26.73;100013.13;5050208;28;20041;-57
2021/07/14 05:04:44;;;;;;;0.20;0.20;;;;;;;38.96;26.71;100013.69;5032489;28;20045;-57
2021/07/14 05:07:11;;;;;;;0.10;0.10;;;;;;;38.96;27.03;99996.47;5050159;28;20041;-55
2021/07/14 05:09:37;;;;;;;0.10;0.10;;;;;;;39.00;27.01;100012.09;5050302;28;20056;-55
2021/07/14 05:12:03;;;;;;;0.30;0.30;;;;;;;38.99;27.19;100004.13;5050227;28;20053;-57
2021/07/14 05:14:29;;;;;;;0.30;0.30;;;;;;;39.10;26.90;100005.00;5032164;28;20057;-56
2021/07/14 05:16:55;;;;;;;0.20;0.20;;;;;;;39.10;26.58;100007.75;5050066;28;20430;-57
2021/07/14 05:19:21;;;;;;;0.10;0.10;;;;;;;39.05;26.67;99998.44;5049766;28;20081;-56
2021/07/14 05:21:47;;;;;;;0.20;0.20;;;;;;;39.11;26.54;100006.63;5050068;28;20469;-57
2021/07/14 05:24:13;;;;;;;0.20;0.20;;;;;;;39.09;26.43;100004.19;5049535;28;20131;-58
2021/07/14 05:26:39;;;;;;;0.30;0.30;;;;;;;39.08;26.91;99995.16;5049917;28;20044;-56
2021/07/14 05:29:05;;;;;;;0.17;0.17;;;;;;;39.08;26.64;100000.63;5049733;28;20064;-56
2021/07/14 05:31:31;;;;;;;0.20;0.20;;;;;;;39.14;26.61;99995.19;5049709;28;20045;-57
2021/07/14 05:33:57;;;;;;;0.20;0.20;;;;;;;39.18;26.47;99999.03;5049226;28;20143;-57
2021/07/14 05:36:23;;;;;;;0.10;0.10;;;;;;;39.19;26.68;99997.94;5049239;28;20212;-57
2021/07/14 05:38:49;;;;;;;0.20;0.20;;;;;;;39.27;26.30;100000.19;5015258;28;20430;-57
2021/07/14 05:41:15;;;;;;;0.20;0.20;;;;;;;39.22;26.41;99998.22;5031399;28;20053;-57
2021/07/14 05:43:41;;;;;;;0.20;0.20;;;;;;;39.29;26.16;100003.47;5049646;28;20493;-56
2021/07/14 05:46:07;;;;;;;0.20;0.20;;;;;;;39.30;26.27;99995.00;5049530;28;20056;-57
2021/07/14 05:48:33;;;;;;;0.22;0.22;;;;;;;39.31;26.54;100006.75;5049355;28;20138;-57
2021/07/14 05:50:59;;;;;;;0.10;0.10;;;;;;;39.26;26.00;100004.00;5049538;28;20033;-57
2021/07/14 05:53:25;;;;;;;0.30;0.30;;;;;;;39.35;26.34;100007.84;5049257;28;20407;-57
2021/07/14 05:55:51;;;;;;;0.35;0.35;;;;;;;39.35;26.46;100010.59;5049454;28;20128;-57
2021/07/14 05:58:17;;;;;;;0.20;0.20;;;;;;;39.35;26.40;100002.38;5048907;28;20501;-56
2021/07/14 06:00:44;;;;;;;0.20;0.20;;;;;;;39.38;26.25;100002.69;5049526;28;20052;-57
2021/07/14 06:03:10;;;;;;;0.10;0.10;;;;;;;39.37;26.21;100000.19;5049228;28;20048;-57
2021/07/14 06:05:36;;;;;;;0.10;0.10;;;;;;;39.35;26.25;99997.75;5049298;28;20052;-57
2021/07/14 06:08:02;;;;;;;0.30;0.30;;;;;;;39.22;26.15;99975.53;5031833;28;20053;-56
2021/07/14 06:10:28;;;;;;;0.40;0.40;;;;;;;39.37;26.35;99994.72;5048861;28;20045;-55
2021/07/14 06:12:59;;;;;;;0.38;0.32;;;;;;;39.38;26.22;100004.59;5049454;28;20056;-56
2021/07/14 06:15:28;;;;;;;0.10;0.10;;;;;;;39.42;26.19;100000.22;5049019;28;20483;-57
2021/07/14 06:17:54;;;;;;;0.65;0.65;;;;;;;39.39;25.96;99987.94;5049384;28;20052;-56
2021/07/14 06:20:20;;;;;;;0.20;0.20;;;;;;;39.46;25.73;99988.50;5049081;28;20045;-55
2021/07/14 06:22:46;;;;;;;0.20;0.20;;;;;;;39.54;25.95;99989.84;5049442;28;20106;-56
2021/07/14 06:25:12;;;;;;;0.10;0.10;;;;;;;39.54;26.07;99987.94;5049178;28;20049;-56
2021/07/14 06:27:42;;;;;;;0.22;0.22;;;;;;;39.53;26.00;99988.25;5031366;28;20569;-57
2021/07/14 06:30:09;;;;;;;0.30;0.30;;;;;;;39.66;25.72;99984.94;5049103;28;20528;-57
2021/07/14 06:32:36;;;;;;;0.10;0.10;;;;;;;39.87;25.58;99978.44;5049120;28;20131;-56
2021/07/14 06:35:03;;;;;;;0.30;0.30;;;;;;;40.80;24.03;99986.31;5049191;28;20049;-57
2021/07/14 06:37:29;;;;;;;0.10;0.10;;;;;;;43.73;20.80;99973.47;5048729;28;20106;-56
2021/07/14 06:39:55;;;;;;;0.40;0.40;;;;;;;46.85;17.60;99973.25;5049092;28;20080;-57
2021/07/14 06:42:21;;;;;;;0.35;0.35;;;;;;;48.88;15.58;99972.88;5045333;28;20048;-56
2021/07/14 06:44:47;;;;;;;0.47;0.47;;;;;;;49.95;14.55;99976.63;5049107;28;20052;-57
2021/07/14 06:47:14;;;;;;;0.75;0.75;;;;;;;50.65;13.64;99971.91;5052516;28;20672;-55
2021/07/14 06:49:40;;;;;;;0.38;0.38;;;;;;;50.98;13.60;99969.00;5034844;28;20084;-56
2021/07/14 06:52:06;;;;;;;0.40;0.40;;;;;;;51.13;13.40;99967.47;5052815;28;20522;-57
2021/07/14 06:54:32;;;;;;;0.35;0.35;;;;;;;51.09;12.96;99974.91;5052444;28;20136;-57
2021/07/14 06:56:58;;;;;;;0.30;0.30;;;;;;;50.90;13.32;99973.53;5051661;28;20118;-57
2021/07/14 06:59:24;;;;;;;0.40;0.40;;;;;;;50.24;13.82;99964.53;5052484;28;20059;-56
2021/07/14 07:01:50;;;;;;;0.20;0.20;;;;;;;48.53;15.01;99959.13;5067965;28;20080;-54
2021/07/14 07:04:16;;;;;;;0.30;0.30;;;;;;;45.43;17.84;99959.50;5052478;28;20557;-54
2021/07/14 07:06:42;;;;;;;0.30;0.30;;;;;;;43.23;20.16;99954.97;5055497;28;20157;-54
2021/07/14 07:09:08;;;;;;;0.10;0.10;;;;;;;42.35;21.68;99955.44;5051451;28;20053;-54
2021/07/14 07:11:36;;;;;;;0.30;0.30;;;;;;;41.88;22.29;99947.91;5050135;28;20621;-55
2021/07/14 07:14:02;;;;;;;0.20;0.20;;;;;;;41.74;22.49;99964.19;5050231;28;20113;-56
2021/07/14 07:16:28;;;;;;;0.25;0.25;;;;;;;41.59;22.71;99956.06;5049996;28;20056;-57
2021/07/14 07:18:54;;;;;;;0.40;0.40;;;;;;;41.52;22.92;99955.56;5050135;28;20049;-55
2021/07/14 07:21:20;;;;;;;0.10;0.10;;;;;;;41.41;23.06;99948.50;5049931;28;20041;-53
2021/07/14 07:23:46;;;;;;;0.20;0.20;;;;;;;41.39;23.42;99961.69;5032710;28;20045;-53
2021/07/14 07:26:15;;;;;;;0.10;0.10;;;;;;;41.28;23.44;99944.44;5034283;28;20045;-56
2021/07/14 07:28:42;;;;;;;0.22;0.22;;;;;;;41.32;23.36;99961.97;5051954;28;20084;-56
2021/07/14 07:31:11;;;;;;;0.10;0.10;;;;;;;41.25;23.47;99955.16;5034490;28;20057;-54
2021/07/14 07:33:40;;;;;;;0.38;0.38;;;;;;;41.24;23.48;99954.34;5017634;28;20052;-55
2021/07/14 07:36:06;;;;;;;0.30;0.30;;;;;;;41.23;23.40;99960.94;5051955;28;20056;-58
2021/07/14 07:38:35;;;;;;;0.20;0.20;;;;;;;41.17;23.66;99955.78;5051436;28;20174;-59
2021/07/14 07:41:02;;;;;;;0.10;0.10;;;;;;;41.12;23.57;99962.09;5051741;28;20049;-55
2021/07/14 07:43:28;;;;;;;0.30;0.30;;;;;;;41.10;23.72;99958.00;5051516;28;20049;-56
2021/07/14 07:45:58;;;;;;;0.60;0.60;;;;;;;41.00;23.76;99948.69;5051746;28;20075;-57
2021/07/14 07:48:24;;;;;;;0.10;0.10;;;;;;;40.99;23.78;99955.31;5033706;28;20099;-56
2021/07/14 07:50:50;;;;;;;0.20;0.20;;;;;;;40.93;23.69;99948.19;5051675;28;20076;-55
2021/07/14 07:53:20;;;;;;;0.10;0.10;;;;;;;40.95;23.94;99948.72;5051607;28;20060;-57
2021/07/14 07:55:47;;;;;;;0.10;0.10;;;;;;;40.94;23.82;99949.78;5051657;28;20056;-56
2021/07/14 07:58:13;;;;;;;0.10;0.10;;;;;;;40.89;23.91;99938.88;5050784;28;20567;-57
2021/07/14 08:00:39;;;;;;;0.35;0.35;;;;;;;40.90;24.11;99947.91;5051479;28;20044;-56
2021/07/14 08:03:05;;;;;;;0.10;0.10;;;;;;;40.91;23.85;99936.66;5051592;28;20053;-55
2021/07/14 08:05:31;;;;;;;0.63;0.63;;;;;;;40.91;23.90;99941.31;5051060;28;20045;-56
2021/07/14 08:07:58;;;;;;;0.10;0.10;;;;;;;40.86;24.09;99942.19;5033666;28;20052;-54
2021/07/14 08:10:23;;;;;;;0.13;0.13;;;;;;;40.85;23.99;99935.03;5051089;28;20560;-55
2021/07/14 08:12:50;;;;;;;0.10;0.10;;;;;;;40.78;23.77;99937.25;5051226;28;20037;-54
2021/07/14 08:15:17;;;;;;;0.10;0.10;;;;;;;40.66;24.33;99930.47;5048221;28;20048;-55
2021/07/14 08:17:44;;;;;;;0.20;0.20;;;;;;;40.65;24.09;99934.31;5044445;28;20080;-55
2021/07/14 08:20:10;;;;;;;0.25;0.25;;;;;;;40.57;24.56;99932.97;5028610;28;20598;-54
2021/07/14 08:22:36;;;;;;;0.52;0.52;;;;;;;40.48;24.45;99923.66;5030073;28;20473;-55
2021/07/14 08:25:03;;;;;;;0.30;0.30;;;;;;;40.46;24.19;99923.94;5029145;28;20049;-54
2021/07/14 08:27:29;;;;;;;0.15;0.15;;;;;;;40.42;24.37;99913.81;5011149;28;20060;-54
2021/07/14 08:29:59;;;;;;;0.15;0.15;;;;;;;40.34;24.40;99915.22;5009857;28;20141;-53
2021/07/14 08:32:28;;;;;;;0.10;0.10;;;;;;;40.16;24.69;99920.44;5028614;28;20450;-55
2021/07/14 08:34:55;;;;;;;0.10;0.10;;;;;;;40.01;24.97;99919.34;5028071;28;20053;-55
2021/07/14 08:37:22;;;;;;;0.10;0.10;;;;;;;40.03;24.71;99917.16;5029154;28;20049;-55
2021/07/14 08:39:49;;;;;;;0.17;0.17;;;;;;;40.07;25.05;99910.03;5030071;28;20049;-54
2021/07/14 08:42:16;;;;;;;0.38;0.38;;;;;;;40.04;24.68;99913.31;5047674;28;20426;-54
2021/07/14 08:44:42;;;;;;;0.08;0.08;;;;;;;40.02;24.76;99910.03;5050590;28;20060;-53
2021/07/14 08:47:08;;;;;;;0.35;0.35;;;;;;;39.97;24.72;99912.78;5050709;28;20080;-56
2021/07/14 08:49:37;;;;;;;0.10;0.10;;;;;;;39.91;24.63;99908.41;5050302;28;20056;-55
2021/07/14 08:52:04;;;;;;;0.35;0.35;;;;;;;39.93;24.51;99908.94;5050739;28;20132;-55
2021/07/14 08:54:30;;;;;;;0.08;0.08;;;;;;;39.92;24.60;99904.56;5050316;28;20118;-55
2021/07/14 08:56:56;;;;;;;0.20;0.20;;;;;;;39.79;25.20;99904.31;5050545;28;20506;-55
2021/07/14 08:59:22;;;;;;;0.13;0.13;;;;;;;39.59;25.14;99905.13;5050483;28;20049;-52
2021/07/14 09:01:48;;;;;;;0.20;0.20;;;;;;;39.43;25.22;99911.66;5032561;28;20734;-56
2021/07/14 09:04:13;;;;;;;0.15;0.15;;;;;;;39.27;25.84;99907.28;5032620;28;20056;-54
2021/07/14 09:06:40;;;;;;;0.10;0.10;;;;;;;39.05;25.67;99900.06;5032402;28;20395;-54
2021/07/14 09:09:06;;;;;;;0.00;0.00;;;;;;;38.96;26.04;99901.69;5050342;28;20056;-54
2021/07/14 09:11:51;;;;;;;0.10;0.10;;;;;;;38.94;25.73;99909.31;5032400;28;20050;-53
2021/07/14 09:14:34;;;;;;;0.10;0.10;;;;;;;38.96;26.13;99904.44;5032286;28;20044;-55
2021/07/14 09:17:01;;;;;;;0.63;0.52;;;;;;;38.91;26.25;99898.94;5050139;28;20494;-55
2021/07/14 09:19:28;;;;;;;0.10;0.10;;;;;;;38.77;26.36;99895.06;5049717;28;20554;-57
2021/07/14 09:21:54;;;;;;;0.08;0.08;;;;;;;38.76;26.14;99900.75;5050010;28;20052;-54
2021/07/14 09:24:31;;;;;;;0.10;0.10;;;;;;;38.69;25.87;99868.25;5049993;28;20049;-57
2021/07/14 09:27:00;;;;;;;0.20;0.20;;;;;;;38.88;26.12;99894.00;5050003;28;20470;-57
2021/07/14 09:29:26;;;;;;;0.20;0.20;;;;;;;38.94;25.96;99892.94;5049970;28;20510;-55
2021/07/14 09:31:52;;;;;;;0.40;0.40;;;;;;;38.96;25.65;99879.84;5049924;28;20049;-56
2021/07/14 09:34:23;;;;;;;0.10;0.10;;;;;;;38.82;25.73;99884.16;5049696;28;20132;-56
2021/07/14 09:36:49;;;;;;;0.08;0.08;;;;;;;38.71;26.29;99882.47;5049397;28;20052;-56
2021/07/14 09:39:34;;;;;;;0.47;0.47;;;;;;;38.62;26.13;99889.50;5049642;28;20079;-55
2021/07/14 09:42:06;;;;;;;0.00;0.00;;;;;;;38.48;26.23;99882.91;5049731;28;20510;-56
2021/07/14 09:44:32;;;;;;;0.10;0.10;;;;;;;38.37;26.78;99886.66;5031871;28;20577;-57
2021/07/14 09:47:09;;;;;;;0.13;0.13;;;;;;;38.14;26.59;99871.50;5049681;28;20080;-55
2021/07/14 09:49:35;;;;;;;0.55;0.55;;;;;;;38.11;26.74;99891.13;5049327;28;20111;-54
2021/07/14 09:52:12;;;;;;;0.10;0.10;;;;;;;37.91;27.26;99867.28;5049550;28;20541;-56
2021/07/14 09:54:39;;;;;;;0.13;0.13;;;;;;;37.96;27.39;99886.38;5031551;28;20140;-54
2021/07/14 09:57:24;;;;;;;0.22;0.22;;;;;;;37.96;27.45;99885.56;5049361;28;20057;-55
2021/07/14 09:59:50;;;;;;;0.10;0.10;;;;;;;38.06;27.38;99885.63;5015136;28;20510;-58
2021/07/14 10:02:16;;;;;;;0.20;0.20;;;;;;;38.12;27.10;99881.03;5049560;28;20053;-57
2021/07/14 10:04:42;;;;;;;0.13;0.13;;;;;;;38.10;27.18;99875.00;5031424;28;20056;-54
2021/07/14 10:07:18;;;;;;;0.28;0.28;;;;;;;38.22;27.34;99879.19;5031709;28;20045;-56
2021/07/14 10:09:44;;;;;;;0.28;0.28;;;;;;;38.37;26.75;99881.22;5049156;28;20130;-57
2021/07/14 10:12:34;;;;;;;0.10;0.10;;;;;;;38.50;26.40;99869.81;5049378;28;20136;-55
2021/07/14 10:15:13;;;;;;;0.13;0.13;;;;;;;38.51;26.35;99866.00;5049501;28;20207;-56
2021/07/14 10:17:46;;;;;;;0.20;0.20;;;;;;;38.62;26.72;99866.84;5049244;28;20424;-55
2021/07/14 10:20:21;;;;;;;0.10;0.10;;;;;;;38.67;26.42;99864.97;5049478;28;20044;-55
2021/07/14 10:22:51;;;;;;;0.30;0.30;;;;;;;38.63;26.49;99844.75;5053100;28;20072;-57
2021/07/14 10:25:18;;;;;;;0.10;0.10;;;;;;;38.68;26.11;99843.97;5019492;28;20111;-55
2021/07/14 10:27:47;;;;;;;0.00;0.00;;;;;;;38.67;26.03;99854.06;5052981;28;20072;-54
2021/07/14 10:30:14;;;;;;;0.15;0.15;;;;;;;38.62;26.17;99847.72;5053013;28;20048;-54
2021/07/14 10:32:41;;;;;;;0.57;0.57;;;;;;;38.63;26.17;99847.47;5035238;28;20076;-54
2021/07/14 10:35:11;;;;;;;0.00;0.00;;;;;;;38.66;26.52;99846.94;5035169;28;20056;-54
2021/07/14 10:37:41;;;;;;;0.20;0.20;;;;;;;38.58;26.08;99833.81;5052738;28;20045;-56
2021/07/14 10:40:07;;;;;;;0.10;0.10;;;;;;;38.46;26.28;99831.31;5035081;28;20438;-58
2021/07/14 10:42:36;;;;;;;0.13;0.13;;;;;;;38.43;26.45;99836.47;5052495;28;20510;-57
2021/07/14 10:45:03;;;;;;;;;;;;;;;38.33;26.41;99823.56;5019065;28;20049;-56
2021/07/14 10:47:30;;;;;;;0.00;0.00;;;;;;;38.25;26.49;99823.28;5052955;28;19967;-58
2021/07/14 10:49:56;;;;;;;0.13;0.13;;;;;;;38.07;26.66;99810.91;5035054;28;20479;-56
2021/07/14 10:52:23;;;;;;;0.20;0.20;;;;;;;38.06;26.96;99826.44;5053009;28;20061;-58
2021/07/14 10:54:52;;;;;;;0.00;0.00;;;;;;;37.97;26.95;99822.56;5035047;28;20062;-58
2021/07/14 10:57:20;;;;;;;0.10;0.10;;;;;;;37.88;27.09;99821.41;5034915;28;20510;-54
2021/07/14 10:59:46;;;;;;;0.60;0.60;;;;;;;37.78;27.10;99809.59;5034788;28;20507;-54
2021/07/14 11:02:15;;;;;;;0.22;0.22;;;;;;;37.68;27.35;99809.53;5018323;28;20053;-55
2021/07/14 11:04:48;;;;;;;0.10;0.10;;;;;;;37.59;27.79;99809.22;5052450;28;20052;-55
2021/07/14 11:07:14;;;;;;;0.10;0.10;;;;;;;37.50;27.79;99805.34;5034760;28;20049;-55
2021/07/14 11:09:43;;;;;;;0.10;0.10;;;;;;;37.38;27.86;99800.00;5051973;28;20056;-55
2021/07/14 11:12:10;;;;;;;0.10;0.10;;;;;;;37.39;27.97;99809.00;5052512;28;20056;-55
2021/07/14 11:14:41;;;;;;;0.10;0.10;;;;;;;37.36;27.75;99809.53;5034155;28;20052;-54
2021/07/14 11:17:07;;;;;;;0.15;0.15;;;;;;;37.31;27.93;99806.75;5052297;28;20533;-54
2021/07/14 11:19:52;;;;;;;0.20;0.20;;;;;;;37.28;28.11;99804.56;5052045;28;20088;-55
2021/07/14 11:22:33;;;;;;;0.00;0.00;;;;;;;37.21;27.77;99803.94;5052322;28;20327;-53
2021/07/14 11:25:00;;;;;;;0.10;0.10;;;;;;;37.16;27.89;99791.13;5052171;28;20566;-55
2021/07/14 11:27:25;;;;;;;0.10;0.10;;;;;;;37.19;27.94;99797.94;5052247;28;20053;-54
2021/07/14 11:30:03;;;;;;;0.00;0.00;;;;;;;37.28;27.69;99802.66;5017404;28;20055;-55
2021/07/14 11:32:35;;;;;;;0.20;0.20;;;;;;;37.31;27.71;99801.31;5050878;28;20511;-54
2021/07/14 11:35:06;;;;;;;0.00;0.00;;;;;;;37.25;27.82;99792.28;5052108;28;20426;-54
2021/07/14 11:37:37;;;;;;;0.10;0.10;;;;;;;37.25;27.45;99789.56;5051940;28;20466;-53
2021/07/14 11:40:21;;;;;;;0.22;0.22;;;;;;;37.22;27.41;99781.91;5034250;28;20167;-55
2021/07/14 11:42:47;;;;;;;0.25;0.25;;;;;;;37.22;27.30;99781.06;5051559;28;20410;-54
2021/07/14 11:45:14;;;;;;;0.22;0.22;;;;;;;37.26;27.31;99771.31;5033960;28;20061;-54
2021/07/14 11:47:40;;;;;;;0.32;0.32;;;;;;;37.31;27.27;99782.22;5051534;28;20091;-56
2021/07/14 11:50:07;;;;;;;0.40;0.40;;;;;;;37.39;27.01;99776.31;5033971;28;20051;-55
2021/07/14 11:52:42;;;;;;;0.20;0.20;;;;;;;37.51;26.68;99766.91;5051800;28;20048;-54
2021/07/14 11:55:24;;;;;;;0.10;0.10;;;;;;;37.65;26.43;99764.53;5051664;28;20048;-56
2021/07/14 11:57:50;;;;;;;0.25;0.25;;;;;;;37.67;26.46;99739.72;5051327;28;20049;-52
2021/07/14 12:00:17;;;;;;;0.03;0.03;;;;;;;37.78;26.23;99764.06;5051463;28;20052;-56
2021/07/14 12:03:02;;;;;;;0.15;0.15;;;;;;;37.76;26.25;99755.34;5051362;28;20037;-55
2021/07/14 12:05:29;;;;;;;0.20;0.20;;;;;;;37.88;25.62;99747.78;5051414;28;20049;-57
2021/07/14 12:08:10;;;;;;;0.30;0.30;;;;;;;37.98;25.67;99747.84;5051278;28;20532;-57
2021/07/14 12:10:38;;;;;;;0.22;0.22;;;;;;;37.96;25.43;99744.56;5051116;28;20057;-58
2021/07/14 12:13:06;;;;;;;0.17;0.17;;;;;;;37.90;25.81;99742.88;5051373;28;20059;-58
2021/07/14 12:15:50;;;;;;;0.10;0.10;;;;;;;37.93;25.83;99734.19;5033766;28;20072;-57